Nearby METAR Reports

 

KSEE - San Diego/Santee, California, USA
Distance from station: E 4mi, 6km
Updated: Fri, 16-Apr-2021 9:35pm PDT
Clear
Clear
 Wind from calm
Wind: Calm
Temperature: 55°F , 13°C
Dew Point: 50°F , 10°C
Humidity: 82%
Barometer: 29.98 inHg , 1015.2 hPa
Clouds: Clear
Visibility: 10 miles , 16 km
2021/04/17 04:35 KSEE 170435Z AUTO 00000KT 10SM CLR 13/10 A2998 RMK AO2
KMYF - San Diego/Mntgmy, California, USA
Distance from station: W 6mi, 10km
Updated: Fri, 16-Apr-2021 9:24pm PDT
Mostly cloudy
Mostly cloudy
 Wind from W
Wind: W 6 mph , 9 km/h
Temperature: 57°F , 14°C
Dew Point: 52°F , 11°C
Humidity: 82%
Barometer: 29.98 inHg , 1015.2 hPa
Clouds: Mostly cloudy
Visibility: 10 miles , 16 km
Cloud details: Mostly cloudy 1200 ft
2021/04/17 04:24 KMYF 170424Z 27005KT 10SM BKN012 14/11 A2998 RMK AO2 T01390106
 
KNKX - Miramar Nas/San, California, USA
Distance from station: WNW 7mi, 11km
Updated: Fri, 16-Apr-2021 8:55pm PDT
Clear
Clear
 Wind from W
Wind: W 3 mph , 6 km/h
Temperature: 54°F , 12°C
Dew Point: 50°F , 10°C
Humidity: 88%
Barometer: 29.97 inHg , 1014.9 hPa
Clouds: Clear
Visibility: 10 miles , 16 km
2021/04/17 03:55 KNKX 170355Z 26003KT 10SM CLR 12/10 A2997 RMK AO2 SLP144 T01220100
KSAN - San Diego, California, USA
Distance from station: WSW 11mi, 17km
Updated: Fri, 16-Apr-2021 8:51pm PDT
Mostly cloudy
Mostly cloudy
 Wind from NW
Wind: NW 5 mph , 7 km/h
Temperature: 61°F , 16°C
Dew Point: 52°F , 11°C
Humidity: 72%
Barometer: 29.99 inHg , 1015.6 hPa
Clouds: Mostly cloudy
Visibility: 10 miles , 16 km
Cloud details: Mostly cloudy 1500 ft
2021/04/17 03:51 KSAN 170351Z 31004KT 10SM BKN015 16/11 A2999 RMK AO2 SLP154 T01610106
 
KNZY - North Island Nas, California, USA
Distance from station: SW 13mi, 22km
Updated: Fri, 16-Apr-2021 9:07pm PDT
Mostly cloudy
Mostly cloudy
 Wind from WNW
Wind: WNW 7 mph , 11 km/h
Temperature: 57°F , 14°C
Dew Point: 52°F , 11°C
Humidity: 82%
Barometer: 29.98 inHg , 1015.2 hPa
Clouds: Mostly cloudy
Visibility: 10 miles , 16 km
Cloud details: Mostly cloudy 1600 ft
2021/04/17 04:07 KNZY 170407Z 29006KT 10SM BKN016 14/11 A2998 RMK AO2 T01440106
KRNM - Ramona, California, USA
Distance from station: NNE 16mi, 26km
Updated: Fri, 16-Apr-2021 8:53pm PDT
Clear
Clear
 Wind from calm
Wind: Calm
Temperature: 52°F , 11°C
Dew Point: 46°F , 8°C
Humidity: 82%
Barometer: 29.96 inHg , 1014.6 hPa
Clouds: Clear
Visibility: 10 miles , 16 km
2021/04/17 03:53 KRNM 170353Z AUTO 00000KT 10SM CLR 11/08 A2996 RMK AO2 SLP141 T01110083
 
KSDM - San Diego/Brown, California, USA
Distance from station: S 16mi, 26km
Updated: Fri, 16-Apr-2021 8:53pm PDT
Overcast
Overcast
 Wind from W
Wind: W 3 mph , 6 km/h
Temperature: 57°F , 14°C
Dew Point: 50°F , 10°C
Humidity: 77%
Barometer: 29.97 inHg , 1014.9 hPa
Clouds: Overcast
Visibility: 10 miles , 16 km
Cloud details: Overcast 1000 ft
2021/04/17 03:53 KSDM 170353Z AUTO 28003KT 10SM OVC010 14/10 A2997 RMK AO2 SLP147 T01440100
KNRS - Imperial Beach, California, USA
Distance from station: SSW 18mi, 29km
Updated: Fri, 16-Apr-2021 8:56pm PDT
Overcast
Overcast
 
Barometer: 29.99 inHg , 1015.6 hPa
Clouds: Overcast
Visibility: 10 miles , 16 km
Cloud details: Overcast 1600 ft
2021/04/17 03:56 KNRS 170356Z 10SM OVC016 A2999 RMK AO2 SLP156 $
 
MMTJ - Tijuana Intl Arp, Mexico
Distance from station: S 20mi, 32km
Updated: Fri, 16-Apr-2021 8:44pm PDT
Mostly cloudy
Mostly cloudy
 Wind from W
Wind: W 6 mph , 9 km/h
Temperature: 55°F , 13°C
Dew Point: 54°F , 12°C
Humidity: 94%
Barometer: 30.00 inHg , 1015.9 hPa
Clouds: Mostly cloudy
Visibility: 7 miles , 11 km
Cloud details: Partly cloudy 1500 ft
Mostly cloudy 20000 ft
2021/04/17 03:44 MMTJ 170344Z 27005KT 7SM SCT015 BKN200 13/12 A3000 RMK 8/502 HZY
KCRQ - Carlsbad, California, USA
Distance from station: NW 26mi, 43km
Updated: Fri, 16-Apr-2021 8:53pm PDT
Overcast
Overcast
 Wind from WSW
Wind: WSW 3 mph , 6 km/h
Temperature: 57°F , 14°C
Dew Point: 52°F , 11°C
Humidity: 82%
Barometer: 29.96 inHg , 1014.6 hPa
Clouds: Overcast
Visibility: 10 miles , 16 km
Cloud details: Overcast 1200 ft
2021/04/17 03:53 KCRQ 170353Z 24003KT 10SM OVC012 14/11 A2996 RMK AO2 SLP143 T01440106
 
KOKB - Oceanside, California, USA
Distance from station: NW 33mi, 54km
Updated: Fri, 16-Apr-2021 9:34pm PDT
Overcast
Overcast
 Wind from calm
Wind: Calm
Temperature: 57°F , 14°C
Dew Point: 52°F , 11°C
Humidity: 82%
Barometer: 29.97 inHg , 1014.9 hPa
Clouds: Overcast
Visibility: 9 miles , 14 km
Cloud details: Overcast 1500 ft
2021/04/17 04:34 KOKB 170434Z AUTO 00000KT 9SM OVC015 14/11 A2997 RMK AO2 T01440111
KCZZ - Campo, California, USA
Distance from station: ESE 35mi, 56km
Updated: Mon, 26-Oct-2020 8:52am PDT
NOT Current

 Wind from NE
Wind: NE 14 mph , 22 km/h, Gust: 20 mph , 31 km/h
Temperature: 48°F , 9°C
Wind Chill: 42°F , 6°C
Dew Point: 27°F , -3°C
Humidity: 43%
Barometer: 29.99 inHg , 1015.6 hPa
2020/10/26 15:52 KCZZ 261552Z AUTO 05012G17KT 09/M03 A2999 RMK AO1 SLP140 T00891028
 
KNFG - Camp Pendleton, California, USA
Distance from station: NNW 37mi, 59km
Updated: Fri, 16-Apr-2021 8:55pm PDT
Overcast
Overcast
 Wind from calm
Wind: Calm
Temperature: 57°F , 14°C
Dew Point: 52°F , 11°C
Humidity: 82%
Barometer: 29.97 inHg , 1014.9 hPa
Clouds: Overcast
Visibility: 10 miles , 16 km
Cloud details: Overcast 1300 ft
2021/04/17 03:55 KNFG 170355Z AUTO 00000KT 10SM OVC013 14/11 A2997 RMK AO2 SLP147 T01440106 $
KRIV - Riverside/March, California, USA
Distance from station: N 74mi, 119km
Updated: Fri, 16-Apr-2021 8:58pm PDT
Clear
Clear
 Wind from calm
Wind: Calm
Temperature: 59°F , 15°C
Dew Point: 45°F , 7°C
Humidity: 59%
Barometer: 29.94 inHg , 1013.9 hPa
Clouds: Clear
Visibility: 10 miles , 16 km
2021/04/17 03:58 KRIV 170358Z AUTO 00000KT 10SM CLR 15/07 A2994 RMK AO2 SLP133 T01500065
 
KTRM - Thermal/Palm Spg, California, USA
Distance from station: NE 75mi, 121km
Updated: Fri, 16-Apr-2021 8:52pm PDT
Clear
Clear
 Wind from NNW
Wind: NNW 13 mph , 20 km/h
Temperature: 79°F , 26°C
Dew Point: 37°F , 3°C
Humidity: 23%
Barometer: 29.79 inHg , 1008.8 hPa
Clouds: Clear
Visibility: 10 miles , 16 km
2021/04/17 03:52 KTRM 170352Z AUTO 33011KT 10SM CLR 26/03 A2979 RMK AO2 SLP089 T02560028
KPSP - Palm Springs, California, USA
Distance from station: NNE 76mi, 122km
Updated: Fri, 16-Apr-2021 8:53pm PDT
Clear
Clear
 Wind from NW
Wind: NW 16 mph , 26 km/h, Gust: 24 mph , 39 km/h
Temperature: 79°F , 26°C
Dew Point: 39°F , 4°C
Humidity: 24%
Barometer: 29.83 inHg , 1010.2 hPa
Clouds: Clear
Visibility: 10 miles , 16 km
2021/04/17 03:53 KPSP 170353Z 32014G21KT 10SM CLR 26/04 A2983 RMK AO2 SLP097 T02560039
 
KSNA - Costa Mesa, California, USA
Distance from station: NW 76mi, 123km
Updated: Fri, 16-Apr-2021 8:53pm PDT
Few Clouds
Few Clouds
 Wind from WSW
Wind: WSW 5 mph , 7 km/h
Temperature: 61°F , 16°C
Dew Point: 52°F , 11°C
Humidity: 72%
Barometer: 29.95 inHg , 1014.2 hPa
Clouds: Few Clouds
Visibility: 8 miles , 13 km
Cloud details: Few Clouds 1400 ft
2021/04/17 03:53 KSNA 170353Z 24004KT 8SM FEW014 16/11 A2995 RMK AO2 SLP141 T01560111
KNJK - El Centro Naf, California, USA
Distance from station: E 79mi, 127km
Updated: Fri, 16-Apr-2021 8:56pm PDT
Clear
Clear
 Wind from WSW
Wind: WSW 17 mph , 28 km/h
Temperature: 75°F , 24°C
Dew Point: 30°F , -1°C
Humidity: 19%
Barometer: 29.82 inHg , 1009.8 hPa
Clouds: Clear
Visibility: 10 miles , 16 km
2021/04/17 03:56 KNJK 170356Z AUTO 25015KT 10SM CLR 24/M01 A2982 RMK AO2 SLP114 T02391011 $
 
KAJO - Corona Muni, California, USA
Distance from station: NNW 82mi, 132km
Updated: Fri, 16-Apr-2021 8:56pm PDT
Clear
Clear
 Wind from W
Wind: W 8 mph , 13 km/h
Temperature: 61°F , 16°C
Dew Point: 50°F , 10°C
Humidity: 68%
Barometer: 29.94 inHg , 1013.9 hPa
Clouds: Clear
Visibility: 10 miles , 16 km
2021/04/17 03:56 KAJO 170356Z AUTO 27007KT 10SM CLR 16/10 A2994 RMK AO2 SLP134 T01610100